Time;durP1;ratioP1;P1;durP2;ratioP2;P2;SDS_P1;SDS_P2;PMS_P1;PMS_P2;Temp;Humidity;BMP_temperature;BMP_pressure;BME280_temperature;BME280_humidity;BME280_pressure;Samples;Min_cycle;Max_cycle;Signal;HPM_P1;HPM_P2
2022/06/08 00:01:00;;;;;;;18.67;11.18;;;15.50;70.60;;;;;;9181879;19;20015;-68
2022/06/08 00:04:08;;;;;;;19.05;13.48;;;15.50;70.70;;;;;;9178458;19;20014;-68
2022/06/08 00:07:14;;;;;;;19.48;11.73;;;15.50;70.70;;;;;;9177945;19;20026;-68
2022/06/08 00:10:19;;;;;;;19.83;12.57;;;15.50;70.70;;;;;;9180838;19;20030;-68
2022/06/08 00:13:27;;;;;;;22.67;11.48;;;15.50;70.80;;;;;;9178885;19;20015;-68
2022/06/08 00:16:32;;;;;;;17.23;11.65;;;15.50;70.90;;;;;;9180161;19;20429;-67
2022/06/08 00:19:37;;;;;;;17.83;12.10;;;15.50;70.90;;;;;;9182023;19;20015;-68
2022/06/08 00:22:43;;;;;;;23.25;12.30;;;15.50;71.00;;;;;;9178448;19;20021;-68
2022/06/08 00:25:48;;;;;;;19.42;11.88;;;15.50;71.10;;;;;;9176797;19;20018;-68
2022/06/08 00:28:56;;;;;;;22.02;12.25;;;15.60;71.20;;;;;;9179598;19;20480;-68
2022/06/08 00:32:02;;;;;;;18.75;11.13;;;15.50;71.20;;;;;;9180675;19;20041;-68
2022/06/08 00:35:09;;;;;;;17.90;11.43;;;15.50;71.20;;;;;;9188435;19;20372;-69
2022/06/08 00:38:14;;;;;;;16.48;11.70;;;15.50;71.30;;;;;;9187493;19;20018;-67
2022/06/08 00:41:37;;;;;;;18.90;10.77;;;15.50;71.40;;;;;;9186778;19;20021;-68
2022/06/08 00:44:48;;;;;;;16.42;10.70;;;15.50;71.60;;;;;;9185620;19;20074;-68
2022/06/08 00:47:56;;;;;;;22.88;11.60;;;15.50;71.60;;;;;;9189246;19;20019;-68
2022/06/08 00:51:02;;;;;;;17.00;11.88;;;15.50;71.50;;;;;;9188710;19;20022;-67
2022/06/08 00:54:11;;;;;;;21.83;11.13;;;15.50;71.60;;;;;;9188703;19;20025;-68
2022/06/08 00:57:22;;;;;;;20.27;11.57;;;15.50;71.70;;;;;;9189003;19;20089;-67
2022/06/08 01:00:34;;;;;;;17.80;11.50;;;15.50;71.80;;;;;;9186768;19;20018;-68
2022/06/08 01:03:41;;;;;;;18.48;11.63;;;15.50;72.50;;;;;;9186032;19;20568;-68
2022/06/08 01:06:54;;;;;;;17.52;10.90;;;15.50;71.90;;;;;;9185843;19;20086;-68
2022/06/08 01:09:59;;;;;;;18.10;10.55;;;15.50;71.90;;;;;;9186608;19;20018;-67
2022/06/08 01:13:06;;;;;;;17.50;11.25;;;15.50;71.90;;;;;;9188207;19;20352;-67
2022/06/08 01:16:16;;;;;;;20.35;10.85;;;15.50;72.00;;;;;;9186574;19;20011;-67
2022/06/08 01:19:22;;;;;;;21.20;11.38;;;15.50;72.10;;;;;;9186495;19;20463;-69
2022/06/08 01:22:31;;;;;;;18.05;10.88;;;15.50;72.10;;;;;;9186553;19;20018;-68
2022/06/08 01:25:42;;;;;;;15.88;10.32;;;15.50;72.20;;;;;;9179632;19;20337;-67
2022/06/08 01:28:58;;;;;;;19.60;11.15;;;15.50;72.30;;;;;;9186473;19;20014;-68
2022/06/08 01:32:08;;;;;;;17.25;11.07;;;15.60;72.40;;;;;;9185383;19;20014;-68
2022/06/08 01:35:29;;;;;;;23.25;10.65;;;15.60;72.50;;;;;;9185411;19;20044;-68
2022/06/08 01:38:46;;;;;;;17.90;10.73;;;15.60;72.60;;;;;;9185673;19;20018;-68
2022/06/08 01:42:05;;;;;;;19.52;10.40;;;15.60;72.50;;;;;;9187541;19;20357;-68
2022/06/08 01:45:33;;;;;;;17.38;11.30;;;15.60;72.60;;;;;;9183201;19;20010;-67
2022/06/08 01:49:13;;;;;;;15.93;11.10;;;15.60;72.50;;;;;;9183462;19;20069;-68
2022/06/08 01:52:31;;;;;;;20.67;12.07;;;15.60;72.60;;;;;;9183560;19;20007;-68
2022/06/08 01:55:48;;;;;;;18.77;10.10;;;15.60;72.50;;;;;;9184953;19;20010;-68
2022/06/08 01:59:03;;;;;;;18.13;10.70;;;15.60;72.60;;;;;;9186357;19;20030;-67
2022/06/08 02:02:17;;;;;;;20.38;11.00;;;15.60;72.60;;;;;;9185265;19;20010;-67
2022/06/08 02:05:30;;;;;;;15.80;10.90;;;15.60;72.60;;;;;;9182260;19;20566;-68
2022/06/08 02:08:47;;;;;;;16.27;10.65;;;15.60;72.50;;;;;;9181516;19;20019;-68
2022/06/08 02:12:04;;;;;;;18.17;10.85;;;15.60;72.60;;;;;;9184133;19;20007;-68
2022/06/08 02:15:21;;;;;;;17.27;10.35;;;15.50;72.60;;;;;;9184779;19;20015;-68
2022/06/08 02:18:33;;;;;;;18.85;11.38;;;15.50;72.50;;;;;;9183902;19;20735;-67
2022/06/08 02:21:44;;;;;;;14.70;10.18;;;15.50;72.60;;;;;;9185455;19;20364;-68
2022/06/08 02:24:55;;;;;;;17.00;10.25;;;15.40;72.60;;;;;;9178175;19;20078;-67
2022/06/08 02:28:06;;;;;;;20.83;10.88;;;15.40;72.60;;;;;;9183599;19;20451;-68
2022/06/08 02:31:17;;;;;;;16.92;10.77;;;15.40;72.70;;;;;;9183208;19;20500;-67
2022/06/08 02:34:29;;;;;;;18.13;10.68;;;15.30;72.80;;;;;;9184258;19;20400;-67
2022/06/08 02:37:38;;;;;;;21.27;10.98;;;15.30;72.80;;;;;;9182529;19;20014;-68
2022/06/08 02:40:47;;;;;;;21.77;11.10;;;15.30;72.90;;;;;;9183008;19;20029;-67
2022/06/08 02:43:59;;;;;;;18.30;11.27;;;15.20;72.90;;;;;;9180551;19;20021;-68
2022/06/08 02:47:16;;;;;;;18.83;11.48;;;15.20;73.00;;;;;;9182049;19;20109;-67
2022/06/08 02:50:23;;;;;;;20.77;11.90;;;15.20;73.10;;;;;;9184418;19;20041;-67
2022/06/08 02:53:54;;;;;;;19.02;11.73;;;15.20;73.10;;;;;;9183267;19;20011;-67
2022/06/08 02:57:06;;;;;;;22.27;11.77;;;15.20;73.50;;;;;;9182659;19;20530;-67
2022/06/08 03:00:18;;;;;;;16.98;10.88;;;15.10;73.30;;;;;;9181991;19;20014;-67
2022/06/08 03:03:31;;;;;;;21.05;12.32;;;15.10;73.40;;;;;;9181989;19;20029;-67
2022/06/08 03:06:42;;;;;;;23.50;12.57;;;15.10;73.40;;;;;;9180248;19;20010;-68
2022/06/08 03:09:49;;;;;;;20.60;12.13;;;15.10;73.40;;;;;;9182040;19;20021;-68
2022/06/08 03:13:03;;;;;;;18.15;11.30;;;15.10;73.50;;;;;;9181718;19;20040;-67
2022/06/08 03:16:26;;;;;;;19.13;12.15;;;15.10;73.60;;;;;;9181850;19;20011;-67
2022/06/08 03:19:34;;;;;;;19.00;11.88;;;15.10;73.70;;;;;;9180535;19;20055;-68
2022/06/08 03:22:40;;;;;;;23.30;11.93;;;15.10;73.60;;;;;;9180994;19;20022;-67
2022/06/08 03:25:46;;;;;;;19.90;12.23;;;15.10;73.60;;;;;;9176179;19;20010;-68
2022/06/08 03:28:53;;;;;;;21.48;11.60;;;15.10;73.70;;;;;;9181080;19;20010;-67
2022/06/08 03:32:01;;;;;;;17.63;11.20;;;15.10;73.80;;;;;;9181990;19;20048;-68
2022/06/08 03:35:09;;;;;;;22.50;13.05;;;15.10;73.90;;;;;;9180711;19;20017;-67
2022/06/08 03:38:16;;;;;;;22.10;13.00;;;15.10;73.90;;;;;;9180698;19;20014;-68
2022/06/08 03:41:23;;;;;;;19.48;12.63;;;15.10;73.90;;;;;;9178845;19;20045;-67
2022/06/08 03:44:29;;;;;;;25.23;13.93;;;15.10;73.90;;;;;;9179544;19;20025;-67
2022/06/08 03:47:42;;;;;;;22.55;14.27;;;15.10;74.70;;;;;;9181891;19;20029;-67
2022/06/08 03:50:51;;;;;;;22.98;14.13;;;15.10;74.20;;;;;;9180514;19;20476;-67
2022/06/08 03:54:00;;;;;;;22.90;14.38;;;15.10;74.10;;;;;;9180213;19;20025;-67
2022/06/08 03:57:09;;;;;;;23.45;14.95;;;15.20;74.30;;;;;;9180950;19;20011;-67
2022/06/08 04:00:18;;;;;;;26.63;15.32;;;15.20;74.30;;;;;;9179816;19;20365;-67
2022/06/08 04:03:35;;;;;;;29.33;16.08;;;15.20;74.40;;;;;;9180135;19;20090;-68
2022/06/08 04:06:43;;;;;;;30.73;15.85;;;15.20;74.60;;;;;;9180970;19;20022;-67
2022/06/08 04:09:48;;;;;;;30.77;17.23;;;15.20;74.50;;;;;;9197306;19;20361;-67
2022/06/08 04:12:55;;;;;;;27.92;17.95;;;15.20;74.60;;;;;;9197025;19;20025;-67
2022/06/08 04:16:03;;;;;;;33.45;17.48;;;15.30;74.70;;;;;;9197409;19;20015;-68
2022/06/08 04:19:21;;;;;;;25.00;17.48;;;15.30;74.90;;;;;;9194929;19;20064;-67
2022/06/08 04:22:31;;;;;;;27.85;18.70;;;15.30;75.00;;;;;;9197206;19;20025;-68
2022/06/08 04:25:39;;;;;;;31.02;19.48;;;15.30;75.00;;;;;;9190940;19;20017;-67
2022/06/08 04:28:45;;;;;;;37.20;20.98;;;15.30;75.00;;;;;;9196804;19;20089;-67
2022/06/08 04:31:55;;;;;;;33.58;21.00;;;15.40;75.10;;;;;;9197216;19;20026;-69
2022/06/08 04:35:08;;;;;;;30.10;19.05;;;15.40;75.20;;;;;;9195379;19;20360;-67
2022/06/08 04:38:14;;;;;;;32.53;19.48;;;15.50;75.40;;;;;;9196566;19;20022;-67
2022/06/08 04:41:20;;;;;;;33.08;21.30;;;15.50;75.40;;;;;;9198098;19;20016;-68
2022/06/08 04:44:28;;;;;;;32.47;21.05;;;15.50;75.50;;;;;;9195813;19;20532;-68
2022/06/08 04:47:34;;;;;;;34.10;20.20;;;15.50;75.50;;;;;;9193502;19;20519;-67
2022/06/08 04:50:44;;;;;;;34.17;20.77;;;15.60;75.60;;;;;;9196299;19;20018;-67
2022/06/08 04:53:49;;;;;;;34.30;22.27;;;15.60;75.70;;;;;;9195471;19;20045;-67
2022/06/08 04:56:56;;;;;;;37.03;22.27;;;15.70;75.80;;;;;;9194929;19;20022;-67
2022/06/08 05:00:01;;;;;;;31.23;22.35;;;15.70;75.90;;;;;;9195810;19;20018;-65
2022/06/08 05:03:08;;;;;;;37.22;21.40;;;15.70;75.90;;;;;;9195141;19;20014;-67
2022/06/08 05:06:20;;;;;;;36.55;23.67;;;15.80;76.00;;;;;;9194104;19;20029;-66
2022/06/08 05:09:26;;;;;;;32.00;21.65;;;15.80;76.10;;;;;;9195000;19;20025;-67
2022/06/08 05:12:32;;;;;;;34.08;21.92;;;15.80;76.10;;;;;;9196040;19;20015;-67
2022/06/08 05:15:40;;;;;;;38.33;24.17;;;15.90;76.30;;;;;;9194265;19;21573;-66
2022/06/08 05:18:46;;;;;;;36.53;23.48;;;16.00;76.40;;;;;;9188756;19;20010;-67
2022/06/08 05:21:56;;;;;;;36.80;22.60;;;16.10;76.40;;;;;;9185407;19;20588;-67
2022/06/08 05:25:05;;;;;;;37.10;23.48;;;16.10;76.50;;;;;;9181811;19;20022;-67
2022/06/08 05:28:13;;;;;;;36.28;23.52;;;16.20;76.50;;;;;;9186331;19;20086;-69
2022/06/08 05:31:25;;;;;;;37.60;24.25;;;16.20;76.50;;;;;;9184172;19;20018;-67
2022/06/08 05:34:32;;;;;;;41.85;24.17;;;16.30;76.50;;;;;;9185363;19;20017;-67
2022/06/08 05:37:40;;;;;;;39.10;23.75;;;16.30;76.60;;;;;;9184845;19;20838;-67
2022/06/08 05:40:46;;;;;;;42.08;25.15;;;16.40;76.80;;;;;;9185074;19;20007;-67
2022/06/08 05:43:52;;;;;;;33.80;23.35;;;16.50;76.90;;;;;;9185720;19;20034;-68
2022/06/08 05:46:57;;;;;;;35.28;23.08;;;16.60;76.90;;;;;;9184467;19;20097;-67
2022/06/08 05:50:02;;;;;;;40.95;24.67;;;16.70;77.00;;;;;;9185380;19;20018;-67
2022/06/08 05:53:12;;;;;;;35.50;23.58;;;16.80;77.00;;;;;;9183780;19;20014;-67
2022/06/08 05:56:17;;;;;;;31.85;20.90;;;16.90;77.10;;;;;;9183776;19;20491;-67
2022/06/08 05:59:26;;;;;;;31.65;21.20;;;17.00;77.00;;;;;;9184066;19;20458;-67
2022/06/08 06:02:31;;;;;;;31.92;20.38;;;17.10;77.10;;;;;;9185985;19;20014;-66
2022/06/08 06:05:38;;;;;;;36.17;22.00;;;17.20;77.00;;;;;;9181734;19;20011;-67
2022/06/08 06:08:50;;;;;;;30.25;20.15;;;17.30;76.90;;;;;;9182534;19;20010;-67
2022/06/08 06:11:58;;;;;;;28.38;19.38;;;17.40;76.90;;;;;;9182039;19;20078;-69
2022/06/08 06:15:11;;;;;;;29.67;18.25;;;17.50;76.90;;;;;;9176871;19;20052;-67
2022/06/08 06:18:17;;;;;;;27.55;18.65;;;17.70;76.90;;;;;;9177518;19;20018;-67
2022/06/08 06:21:30;;;;;;;28.23;18.70;;;17.80;76.80;;;;;;9178575;19;20022;-67
2022/06/08 06:24:38;;;;;;;29.02;18.00;;;17.90;76.60;;;;;;9174527;19;20039;-67
2022/06/08 06:27:48;;;;;;;27.70;18.50;;;18.00;76.70;;;;;;9177841;19;20439;-66
2022/06/08 06:31:21;;;;;;;28.80;17.73;;;18.10;76.50;;;;;;9172049;19;20452;-67
2022/06/08 06:34:35;;;;;;;24.00;16.02;;;18.20;76.40;;;;;;9171754;19;20015;-67
2022/06/08 06:37:40;;;;;;;22.58;15.13;;;18.30;76.30;;;;;;9173780;19;20360;-68
2022/06/08 06:40:48;;;;;;;23.00;14.60;;;18.50;76.30;;;;;;9171144;19;20018;-68
2022/06/08 06:43:56;;;;;;;22.10;15.43;;;18.60;76.20;;;;;;9173679;19;20046;-68
2022/06/08 06:47:15;;;;;;;19.45;13.30;;;18.70;76.10;;;;;;9170410;19;20034;-71
2022/06/08 06:50:28;;;;;;;23.25;12.50;;;18.80;76.00;;;;;;9177247;19;20010;-68
2022/06/08 06:53:35;;;;;;;21.58;13.95;;;18.90;75.90;;;;;;9178798;19;20019;-69
2022/06/08 06:56:44;;;;;;;19.98;13.13;;;19.10;75.90;;;;;;9177455;19;20344;-70
2022/06/08 06:59:55;;;;;;;18.42;12.55;;;19.20;75.70;;;;;;9176681;19;20407;-69
2022/06/08 07:03:00;;;;;;;16.90;11.73;;;19.30;75.60;;;;;;9178508;19;20082;-69
2022/06/08 07:06:06;;;;;;;19.95;11.85;;;19.30;75.50;;;;;;9182418;19;20046;-69
2022/06/08 07:09:12;;;;;;;16.35;10.95;;;19.40;75.50;;;;;;9179677;19;20049;-69
2022/06/08 07:12:23;;;;;;;14.60;10.82;;;19.60;75.30;;;;;;9183485;19;20018;-67
2022/06/08 07:15:31;;;;;;;17.42;11.18;;;19.70;75.30;;;;;;9182107;19;20015;-67
2022/06/08 07:18:37;;;;;;;15.88;10.55;;;19.80;75.20;;;;;;9182243;19;20503;-67
2022/06/08 07:21:43;;;;;;;17.73;10.02;;;19.80;74.90;;;;;;9182357;19;20082;-67
2022/06/08 07:24:48;;;;;;;17.27;9.18;;;19.90;74.80;;;;;;9176878;19;20026;-68
2022/06/08 07:27:56;;;;;;;22.42;9.70;;;20.00;74.70;;;;;;9180894;19;20017;-67
2022/06/08 07:31:01;;;;;;;14.75;9.27;;;20.10;74.60;;;;;;9183585;19;20019;-68
2022/06/08 07:34:06;;;;;;;16.98;11.10;;;20.20;74.60;;;;;;9181807;19;20492;-68
2022/06/08 07:37:11;;;;;;;14.68;9.40;;;20.20;74.40;;;;;;9181954;19;20021;-69
2022/06/08 07:40:16;;;;;;;17.88;10.65;;;20.30;74.30;;;;;;9174707;19;20011;-69
2022/06/08 07:43:24;;;;;;;19.88;9.73;;;20.40;74.20;;;;;;9173971;19;20030;-67
2022/06/08 07:46:30;;;;;;;15.52;9.18;;;20.40;74.10;;;;;;9176871;19;20021;-67
2022/06/08 07:49:45;;;;;;;15.40;9.25;;;20.50;74.10;;;;;;9177637;19;20111;-69
2022/06/08 07:52:50;;;;;;;13.50;8.48;;;20.60;74.00;;;;;;9172347;19;20016;-67
2022/06/08 07:55:55;;;;;;;11.30;7.68;;;20.80;74.00;;;;;;9174281;19;20026;-67
2022/06/08 07:59:14;;;;;;;13.10;7.63;;;20.80;73.70;;;;;;9175994;19;20372;-68
2022/06/08 08:02:19;;;;;;;16.52;7.85;;;20.90;73.50;;;;;;9175089;19;20025;-69
2022/06/08 08:05:25;;;;;;;10.88;6.07;;;21.10;73.30;;;;;;9179097;19;20086;-69
2022/06/08 08:08:30;;;;;;;13.60;7.40;;;21.20;73.10;;;;;;9174703;19;20011;-68
2022/06/08 08:11:35;;;;;;;12.30;6.40;;;21.30;73.10;;;;;;9176404;19;20495;-68
2022/06/08 08:14:43;;;;;;;10.70;6.38;;;21.40;72.90;;;;;;9181136;19;20370;-69
2022/06/08 08:17:48;;;;;;;14.52;7.25;;;21.60;72.60;;;;;;9180854;19;20019;-68
2022/06/08 08:20:53;;;;;;;11.52;6.47;;;21.70;72.50;;;;;;9180540;19;20356;-68
2022/06/08 08:23:58;;;;;;;14.45;6.57;;;21.80;72.20;;;;;;9176239;19;20091;-69
2022/06/08 08:27:04;;;;;;;19.33;7.45;;;21.90;72.00;;;;;;9180008;19;20061;-68
2022/06/08 08:30:15;;;;;;;16.95;8.18;;;22.00;71.80;;;;;;9180778;19;20574;-69
2022/06/08 08:33:20;;;;;;;12.80;7.75;;;22.20;71.80;;;;;;9180308;19;20582;-69
2022/06/08 08:36:25;;;;;;;13.18;7.07;;;22.30;71.80;;;;;;9180035;19;20018;-69
2022/06/08 08:39:30;;;;;;;13.70;6.47;;;22.40;71.60;;;;;;9181524;19;20006;-70
2022/06/08 08:42:37;;;;;;;11.25;5.70;;;22.60;71.40;;;;;;9180672;19;20060;-70
2022/06/08 08:46:07;;;;;;;9.35;5.45;;;22.70;71.00;;;;;;9176865;19;20007;-70
2022/06/08 08:49:23;;;;;;;7.03;5.10;;;22.80;70.70;;;;;;9175140;19;20014;-69
2022/06/08 08:52:39;;;;;;;10.55;4.72;;;23.00;70.40;;;;;;9180736;19;20368;-70
2022/06/08 08:55:51;;;;;;;7.05;4.60;;;23.10;70.00;;;;;;9189634;19;20021;-70
2022/06/08 08:58:56;;;;;;;8.23;4.22;;;23.20;69.80;;;;;;9187483;19;20375;-72
2022/06/08 09:02:04;;;;;;;5.25;3.03;;;23.30;69.60;;;;;;9185192;19;20006;-72
2022/06/08 09:05:15;;;;;;;6.60;3.22;;;23.30;69.10;;;;;;9184072;19;20022;-72
2022/06/08 09:08:22;;;;;;;5.15;3.55;;;23.30;69.40;;;;;;9187285;19;20019;-72
2022/06/08 09:11:31;;;;;;;10.05;3.92;;;23.30;68.60;;;;;;9187350;19;20018;-71
2022/06/08 09:14:52;;;;;;;6.20;3.15;;;23.20;68.40;;;;;;9186174;19;20025;-70
2022/06/08 09:18:00;;;;;;;7.20;3.08;;;23.20;68.10;;;;;;9185579;19;20014;-73
2022/06/08 09:21:32;;;;;;;8.48;3.55;;;23.10;68.30;;;;;;9187107;19;20515;-72
2022/06/08 09:24:42;;;;;;;6.68;2.58;;;23.10;68.20;;;;;;9182634;19;20025;-70
2022/06/08 09:27:53;;;;;;;5.88;2.45;;;23.00;68.30;;;;;;9184655;19;20603;-71
2022/06/08 09:30:58;;;;;;;6.57;2.70;;;23.00;68.20;;;;;;9186369;19;20062;-72
2022/06/08 09:34:19;;;;;;;5.65;2.78;;;23.00;68.30;;;;;;9185878;19;20014;-73
2022/06/08 09:37:26;;;;;;;3.85;1.98;;;23.00;68.00;;;;;;9186618;19;20024;-71
2022/06/08 09:40:40;;;;;;;3.88;1.70;;;23.00;68.20;;;;;;9187460;19;20015;-71
2022/06/08 09:44:12;;;;;;;4.47;1.65;;;23.00;68.00;;;;;;9186443;19;20026;-71
2022/06/08 09:54:15;;;;;;;4.57;1.60;;;23.20;67.60;;;;;;9185159;19;20052;-72
2022/06/08 09:57:34;;;;;;;4.35;1.58;;;23.20;67.40;;;;;;9182709;19;20014;-74
2022/06/08 10:00:46;;;;;;;2.70;1.50;;;23.30;67.20;;;;;;9179039;19;20014;-72
2022/06/08 10:04:13;;;;;;;3.40;1.35;;;23.40;67.00;;;;;;9179702;19;20011;-71
2022/06/08 10:07:25;;;;;;;3.40;1.55;;;23.40;67.00;;;;;;9179071;19;20623;-73
2022/06/08 10:10:37;;;;;;;5.13;1.70;;;23.50;66.90;;;;;;9179215;19;20018;-73
2022/06/08 10:13:49;;;;;;;4.47;1.45;;;23.50;67.40;;;;;;9178845;19;20478;-74
2022/06/08 10:17:02;;;;;;;2.55;1.40;;;23.60;66.70;;;;;;9178469;19;20014;-72
2022/06/08 10:20:17;;;;;;;3.42;1.42;;;23.60;66.70;;;;;;9180053;19;20019;-72
2022/06/08 10:23:35;;;;;;;3.38;1.88;;;23.70;66.50;;;;;;9180579;19;20029;-72
2022/06/08 10:26:46;;;;;;;2.83;1.15;;;23.80;66.10;;;;;;9179118;19;20508;-73
2022/06/08 10:30:07;;;;;;;8.20;1.90;;;23.90;66.10;;;;;;9172770;19;20018;-71
2022/06/08 10:33:20;;;;;;;3.03;1.42;;;24.00;65.70;;;;;;9169303;19;20705;-72
2022/06/08 10:36:31;;;;;;;2.78;1.23;;;24.10;65.70;;;;;;9171026;19;20014;-71
2022/06/08 10:39:41;;;;;;;3.55;1.40;;;24.20;65.70;;;;;;9172925;19;20021;-71
2022/06/08 10:42:47;;;;;;;5.80;1.40;;;24.20;65.40;;;;;;9176025;19;20026;-73
2022/06/08 10:45:58;;;;;;;6.60;1.52;;;24.20;65.20;;;;;;9171574;19;20030;-71
2022/06/08 10:49:03;;;;;;;3.55;1.65;;;24.30;65.00;;;;;;9171262;19;20025;-70
2022/06/08 10:52:28;;;;;;;3.97;1.55;;;24.30;65.80;;;;;;9171689;19;20082;-67
2022/06/08 10:55:47;;;;;;;4.05;1.30;;;24.30;64.80;;;;;;9173275;19;20028;-68
2022/06/08 10:58:58;;;;;;;7.78;1.85;;;24.30;64.80;;;;;;9179773;19;20443;-68
2022/06/08 11:02:30;;;;;;;3.30;1.50;;;24.40;64.70;;;;;;9179415;19;20507;-68
2022/06/08 11:05:38;;;;;;;5.47;1.58;;;24.40;64.30;;;;;;9178059;19;20015;-68
2022/06/08 11:08:56;;;;;;;8.80;1.70;;;24.40;64.40;;;;;;9176875;19;20018;-69
2022/06/08 11:12:18;;;;;;;6.70;1.40;;;24.40;64.70;;;;;;9176979;19;20480;-69
2022/06/08 11:15:52;;;;;;;6.70;1.25;;;24.40;64.10;;;;;;9179374;19;20018;-68
2022/06/08 11:19:03;;;;;;;8.23;1.70;;;24.40;64.00;;;;;;9175855;19;20484;-68
2022/06/08 11:22:17;;;;;;;7.55;1.70;;;24.40;64.10;;;;;;9179706;19;20480;-69
2022/06/08 11:25:28;;;;;;;5.43;1.70;;;24.40;63.90;;;;;;9174516;19;20026;-68
2022/06/08 11:28:40;;;;;;;4.75;1.15;;;24.40;64.00;;;;;;9177433;19;20040;-69
2022/06/08 11:31:55;;;;;;;6.93;1.38;;;24.40;63.90;;;;;;9176314;19;20025;-70
2022/06/08 11:35:25;;;;;;;5.13;1.63;;;24.50;63.90;;;;;;9177928;19;20029;-68
2022/06/08 11:38:54;;;;;;;5.20;1.45;;;24.50;63.90;;;;;;9182734;19;20346;-70
2022/06/08 11:42:19;;;;;;;6.18;2.42;;;24.50;63.90;;;;;;9181544;19;20015;-69
2022/06/08 11:45:37;;;;;;;8.02;1.60;;;24.50;64.70;;;;;;9180808;19;20359;-70
2022/06/08 11:48:49;;;;;;;10.07;2.03;;;24.50;64.00;;;;;;9180029;19;20022;-69
2022/06/08 11:51:54;;;;;;;9.57;2.10;;;24.50;64.00;;;;;;9180661;19;20023;-69
2022/06/08 11:55:12;;;;;;;4.72;1.48;;;24.50;64.10;;;;;;9181502;19;20018;-69
2022/06/08 11:58:24;;;;;;;7.75;2.33;;;24.50;64.00;;;;;;9182266;19;20022;-68
2022/06/08 12:01:43;;;;;;;4.68;1.70;;;24.50;64.10;;;;;;9180306;19;20010;-69
2022/06/08 12:04:55;;;;;;;9.75;2.38;;;24.40;64.00;;;;;;9180326;19;20478;-68
2022/06/08 12:08:16;;;;;;;9.20;2.22;;;24.40;64.10;;;;;;9178031;19;20017;-70
2022/06/08 12:11:44;;;;;;;6.72;1.92;;;24.40;64.00;;;;;;9175286;19;20050;-68
2022/06/08 12:14:50;;;;;;;12.07;2.17;;;24.40;64.10;;;;;;9180718;19;20010;-68
2022/06/08 12:17:58;;;;;;;12.80;2.30;;;24.40;64.00;;;;;;9181052;19;20019;-67
2022/06/08 12:21:07;;;;;;;8.73;2.78;;;24.30;63.80;;;;;;9181005;19;20008;-68
2022/06/08 12:24:26;;;;;;;17.45;3.63;;;24.30;64.00;;;;;;9178004;19;20503;-68
2022/06/08 12:27:31;;;;;;;15.40;2.35;;;24.30;64.30;;;;;;9181887;19;20014;-68
2022/06/08 12:30:54;;;;;;;12.25;2.67;;;24.20;64.50;;;;;;9186487;19;20010;-68
2022/06/08 12:34:35;;;;;;;4.60;1.80;;;24.00;64.70;;;;;;9190973;19;20017;-69
2022/06/08 12:37:45;;;;;;;;;;;23.80;64.80;;;;;;9190068;19;20007;-69
2022/06/08 12:41:11;;;;;;;9.82;2.47;;;23.60;64.90;;;;;;9190587;19;19918;-68
2022/06/08 12:44:23;;;;;;;8.48;2.65;;;23.40;65.40;;;;;;9190625;19;20041;-68
2022/06/08 12:47:31;;;;;;;6.20;2.13;;;23.20;65.80;;;;;;9190015;19;20014;-68
2022/06/08 12:50:39;;;;;;;10.90;2.55;;;23.10;66.10;;;;;;9187982;19;20040;-68
2022/06/08 12:53:44;;;;;;;5.18;2.03;;;22.90;66.40;;;;;;9189843;19;20018;-67
2022/06/08 12:56:52;;;;;;;11.27;2.47;;;22.80;66.70;;;;;;9186497;19;20025;-68
2022/06/08 13:00:00;;;;;;;9.35;3.13;;;22.70;67.00;;;;;;9189764;19;20015;-67
2022/06/08 13:03:17;;;;;;;9.77;3.13;;;22.50;67.20;;;;;;9185551;19;20018;-68
2022/06/08 13:06:26;;;;;;;11.50;3.15;;;22.40;67.50;;;;;;9187200;19;20007;-68
2022/06/08 13:09:31;;;;;;;8.15;2.20;;;22.20;67.50;;;;;;9188118;19;20022;-68
2022/06/08 13:12:42;;;;;;;8.10;1.40;;;22.10;67.70;;;;;;9184972;19;20018;-68
2022/06/08 13:15:49;;;;;;;2.97;1.60;;;21.90;67.80;;;;;;9185038;19;20082;-68
2022/06/08 13:18:56;;;;;;;8.18;1.90;;;21.70;67.80;;;;;;9182334;19;20372;-67
2022/06/08 13:22:03;;;;;;;7.40;1.67;;;21.60;67.80;;;;;;9182518;19;20026;-68
2022/06/08 13:25:10;;;;;;;3.80;1.45;;;21.50;68.10;;;;;;9178499;19;20015;-67
2022/06/08 13:28:18;;;;;;;8.80;2.13;;;21.30;68.20;;;;;;9187874;19;20014;-69
2022/06/08 13:31:26;;;;;;;8.07;1.75;;;21.20;68.30;;;;;;9182714;19;20022;-67
2022/06/08 13:34:33;;;;;;;8.73;2.20;;;21.10;68.50;;;;;;9187924;19;20014;-68
2022/06/08 13:37:43;;;;;;;6.97;2.17;;;20.90;68.60;;;;;;9189135;19;20596;-68
2022/06/08 13:40:48;;;;;;;9.00;2.20;;;20.90;69.00;;;;;;9183861;19;20006;-68
2022/06/08 13:44:01;;;;;;;7.53;2.13;;;20.80;69.00;;;;;;9186111;19;20011;-68
2022/06/08 13:47:09;;;;;;;8.38;2.17;;;20.70;69.10;;;;;;9186045;19;20007;-68
2022/06/08 13:50:26;;;;;;;8.77;2.95;;;20.60;69.40;;;;;;9184736;19;20483;-67
2022/06/08 13:53:34;;;;;;;6.35;2.45;;;20.60;69.70;;;;;;9186108;19;20022;-68
2022/06/08 13:56:39;;;;;;;7.72;2.40;;;20.50;69.70;;;;;;9185918;19;20020;-68
2022/06/08 13:59:47;;;;;;;8.00;2.38;;;20.50;69.80;;;;;;9178765;19;20408;-69
2022/06/08 14:02:57;;;;;;;3.38;1.83;;;20.40;69.90;;;;;;9181560;19;20021;-67
2022/06/08 14:13:03;;;;;;;9.80;2.97;;;20.30;70.40;;;;;;9179210;19;20031;-68
2022/06/08 14:16:08;;;;;;;9.48;2.40;;;20.30;70.40;;;;;;9178684;19;20079;-67
2022/06/08 14:19:19;;;;;;;5.20;2.67;;;20.30;70.70;;;;;;9179534;19;20486;-68
2022/06/08 14:22:27;;;;;;;7.35;2.47;;;20.20;70.90;;;;;;9178363;19;20459;-66
2022/06/08 14:25:37;;;;;;;11.30;3.00;;;20.20;70.90;;;;;;9168899;19;20026;-68
2022/06/08 14:28:42;;;;;;;12.77;3.10;;;20.20;71.00;;;;;;9178354;19;20033;-69
2022/06/08 14:31:48;;;;;;;8.02;2.88;;;20.20;71.00;;;;;;9176014;19;20029;-66
2022/06/08 14:34:53;;;;;;;5.72;2.35;;;20.10;71.10;;;;;;9180070;19;20014;-66
2022/06/08 14:37:59;;;;;;;11.35;3.17;;;20.00;71.00;;;;;;9177636;19;20388;-69
2022/06/08 14:41:07;;;;;;;12.88;3.72;;;20.00;71.20;;;;;;9178773;19;20029;-66
2022/06/08 14:44:18;;;;;;;8.90;2.60;;;20.00;71.40;;;;;;9179724;19;20025;-67
2022/06/08 14:47:27;;;;;;;5.22;2.67;;;19.90;71.50;;;;;;9177481;19;20018;-67
2022/06/08 14:50:34;;;;;;;7.05;2.08;;;19.90;71.50;;;;;;9174997;19;20018;-67
2022/06/08 14:53:39;;;;;;;6.75;2.38;;;19.80;71.60;;;;;;9178949;19;20021;-67
2022/06/08 14:56:48;;;;;;;7.43;1.98;;;19.80;71.60;;;;;;9178478;19;20014;-67
2022/06/08 14:59:54;;;;;;;3.70;2.17;;;19.70;71.80;;;;;;9178874;19;20014;-67
2022/06/08 15:03:01;;;;;;;6.57;1.70;;;19.70;72.50;;;;;;9179216;19;20029;-67
2022/06/08 15:06:07;;;;;;;4.35;1.17;;;19.70;71.80;;;;;;9178394;19;20535;-68
2022/06/08 15:09:13;;;;;;;2.88;1.33;;;19.60;71.80;;;;;;9174343;19;20025;-66
2022/06/08 15:12:24;;;;;;;3.30;1.10;;;19.60;72.00;;;;;;9171895;19;20018;-68
2022/06/08 15:15:30;;;;;;;6.38;1.20;;;19.60;72.10;;;;;;9170240;19;20019;-67
2022/06/08 15:18:35;;;;;;;3.10;1.40;;;19.50;71.90;;;;;;9169797;19;20023;-69
2022/06/08 15:21:40;;;;;;;2.88;0.77;;;19.50;72.00;;;;;;9171231;19;20025;-69
2022/06/08 15:24:46;;;;;;;4.55;1.27;;;19.50;72.10;;;;;;9166025;19;20011;-69
2022/06/08 15:28:02;;;;;;;;;;;19.40;72.20;;;;;;9172005;19;20017;-68
2022/06/08 15:31:08;;;;;;;3.25;1.40;;;19.40;72.00;;;;;;9169767;19;19937;-69
2022/06/08 15:34:17;;;;;;;3.80;1.30;;;19.40;72.00;;;;;;9170234;19;20021;-70
2022/06/08 15:37:24;;;;;;;2.92;1.48;;;19.40;72.20;;;;;;9170663;19;20003;-70
2022/06/08 15:40:33;;;;;;;2.28;1.33;;;19.40;72.30;;;;;;9170774;19;20043;-70
2022/06/08 15:43:42;;;;;;;2.80;1.48;;;19.40;72.50;;;;;;9170353;19;20014;-69
2022/06/08 15:46:48;;;;;;;3.88;1.55;;;19.40;72.60;;;;;;9169095;19;20030;-71
2022/06/08 15:49:56;;;;;;;4.53;1.90;;;19.40;72.60;;;;;;9176241;19;20018;-69
2022/06/08 15:53:06;;;;;;;3.38;1.80;;;19.40;72.70;;;;;;9178543;19;20018;-70
2022/06/08 15:56:14;;;;;;;6.40;1.98;;;19.40;72.80;;;;;;9177896;19;20048;-70
2022/06/08 15:59:26;;;;;;;6.30;2.20;;;19.40;72.80;;;;;;9176742;19;20025;-69
2022/06/08 16:02:31;;;;;;;3.08;1.92;;;19.40;73.00;;;;;;9173307;19;20448;-69
2022/06/08 16:05:40;;;;;;;7.28;2.17;;;19.30;73.10;;;;;;9167440;19;20022;-68
2022/06/08 16:08:45;;;;;;;5.82;2.17;;;19.40;73.10;;;;;;9164891;19;20018;-69
2022/06/08 16:11:50;;;;;;;4.90;1.80;;;19.40;73.10;;;;;;9164166;19;20025;-69
2022/06/08 16:14:58;;;;;;;5.57;2.10;;;19.40;73.10;;;;;;9167037;19;20026;-69
2022/06/08 16:18:04;;;;;;;5.13;1.83;;;19.30;73.10;;;;;;9164609;19;20869;-69
2022/06/08 16:21:09;;;;;;;7.38;1.70;;;19.30;73.10;;;;;;9167794;19;20018;-69
2022/06/08 16:24:14;;;;;;;5.10;1.70;;;19.30;73.30;;;;;;9165326;19;20014;-69
2022/06/08 16:27:19;;;;;;;2.40;1.40;;;19.30;73.30;;;;;;9163652;19;20023;-71
2022/06/08 16:30:30;;;;;;;1.60;1.27;;;19.30;73.30;;;;;;9168168;19;20892;-70